Airfield :
LOGIN :

Register | Disclaimer

   EN    FR    IT 

 










Legend :    VFR   Marginal VFR   IFR   Intensive IFR   Very Intensive IFR
Visi :
Ceiling :
>= 8 km
>= 3000ft
5 to 8 km
1000 to 3000 ft
1500m to 5 km
500 to 1000 ft
800 to 1500m
200 to 500 ft
< 800m
< 200 ft
Symbols :   Thunderstorms  Fog  Heavy snow  Heavy precipitations  Wind > 20 kt
SIGMETs :     Misc.  Thunderstorms  Icing  Turbulence  Mountain Waves  Volcanic Ashes






- Airport Elevation : 1455 ft


ETIH - Hohenfels Army Air Field

CURRENT METAR :
  • 252001Z AUTO 00000KT 9999 SCT030 BKN065 11/10 A2986 RMK AO2 DZE01 SLP114 $

EXPIRED METARs :
  • 251955Z AUTO 00000KT 9999 -DZ SCT030 SCT036 BKN070 11/10 A2986 RMK AO2 RAB50E51DZB51 SLP114 P0000 T01050097 $
  • 251950Z AUTO 00000KT 9999 -RA FEW029 SCT034 OVC070 10/10 A2986 RMK AO2 RAB50 SLP114 $
  • 251855Z AUTO 29004KT 9999 FEW034 OVC075 10/10 A2985 RMK AO2 SLP112 T01040096 $
  • 251800Z AUTO 27003KT 9000 BR BKN080 11/10 A2985 RMK AO2 SLP111 $

Expired Forecast.



MET'MAP, your aeronautical weather chart ! - Copyright ORBIFLY December 2007 - Disclaimer

ORBIFLY MET'MAP TEAM :

Programming & Development : Alexandra Zaïnal
Original concept : Baudouin d'Aumeries
Technical & hardware support : Manuel Goepfert
Assistance : Marc-Olivier Méhu




SOURCES & CREDITS :

   NOAA